Time;durP1;ratioP1;P1;durP2;ratioP2;P2;SDS_P1;SDS_P2;PMS_P1;PMS_P2;Temp;Humidity;BMP_temperature;BMP_pressure;BME280_temperature;BME280_humidity;BME280_pressure;Samples;Min_cycle;Max_cycle;Signal;HPM_P1;HPM_P2
2023/04/14 00:00:35;;;;;;;11.80;11.40;;;5.40;99.90;;;;;;5147313;27;20465;-67
2023/04/14 00:03:02;;;;;;;12.07;11.57;;;5.40;99.90;;;;;;5148425;27;20837;-67
2023/04/14 00:05:30;;;;;;;11.63;11.23;;;5.30;99.90;;;;;;5149395;27;20942;-67
2023/04/14 00:07:56;;;;;;;12.47;11.97;;;5.20;99.90;;;;;;5148832;27;20462;-68
2023/04/14 00:10:24;;;;;;;12.23;11.73;;;5.00;99.90;;;;;;5150080;27;20486;-68
2023/04/14 00:12:51;;;;;;;12.43;11.93;;;5.00;99.90;;;;;;5153010;27;20854;-68
2023/04/14 00:15:19;;;;;;;12.57;12.07;;;4.90;99.90;;;;;;5152539;27;20519;-67
2023/04/14 00:17:48;;;;;;;11.83;11.43;;;4.80;99.90;;;;;;5153103;27;20461;-68
2023/04/14 00:20:15;;;;;;;11.73;11.33;;;4.90;99.90;;;;;;5152758;27;20450;-67
2023/04/14 00:22:43;;;;;;;11.70;11.30;;;5.00;99.90;;;;;;5152318;27;20502;-68
2023/04/14 00:25:10;;;;;;;11.47;11.07;;;4.90;99.90;;;;;;5149526;27;20955;-67
2023/04/14 00:27:36;;;;;;;11.63;11.23;;;4.70;99.90;;;;;;5152867;27;20451;-68
2023/04/14 00:30:04;;;;;;;11.60;11.20;;;4.40;99.90;;;;;;5152422;27;20459;-68
2023/04/14 00:32:32;;;;;;;12.03;11.53;;;4.20;99.90;;;;;;5152488;27;20479;-68
2023/04/14 00:35:02;;;;;;;11.60;11.20;;;4.10;99.90;;;;;;5151990;27;20455;-67
2023/04/14 00:37:29;;;;;;;11.60;11.20;;;3.90;99.90;;;;;;5152106;27;20482;-69
2023/04/14 00:39:56;;;;;;;11.43;11.03;;;3.70;99.90;;;;;;5152173;27;20459;-69
2023/04/14 00:42:22;;;;;;;11.00;10.60;;;3.60;99.90;;;;;;5152280;27;20505;-67
2023/04/14 00:44:50;;;;;;;10.70;10.30;;;3.70;99.90;;;;;;5150828;27;20851;-68
2023/04/14 00:47:18;;;;;;;11.07;10.67;;;3.70;99.90;;;;;;5148767;27;20451;-67
2023/04/14 00:49:44;;;;;;;10.27;9.87;;;3.70;99.90;;;;;;5150679;27;20451;-68
2023/04/14 00:52:15;;;;;;;10.80;10.40;;;3.60;99.90;;;;;;5152190;27;20835;-67
2023/04/14 00:54:42;;;;;;;10.90;10.50;;;3.50;99.90;;;;;;5152499;27;20487;-68
2023/04/14 00:57:10;;;;;;;11.00;10.60;;;3.60;99.90;;;;;;5146521;27;20820;-67
2023/04/14 00:59:37;;;;;;;11.40;11.00;;;3.50;99.90;;;;;;5146796;27;20466;-68
2023/04/14 01:02:04;;;;;;;10.90;10.50;;;3.50;99.90;;;;;;5152133;27;20458;-67
2023/04/14 01:04:31;;;;;;;10.37;9.97;;;3.50;99.90;;;;;;5151950;27;20547;-67
2023/04/14 01:06:58;;;;;;;10.07;9.70;;;3.40;99.90;;;;;;5152012;27;20849;-67
2023/04/14 01:09:27;;;;;;;10.10;9.73;;;3.30;99.90;;;;;;5148607;27;20462;-67
2023/04/14 01:12:06;;;;;;;10.13;9.73;;;3.30;99.90;;;;;;5151767;27;20456;-67
2023/04/14 01:14:41;;;;;;;9.33;9.03;;;3.20;99.90;;;;;;5151701;27;20490;-67
2023/04/14 01:17:17;;;;;;;10.00;9.67;;;3.10;99.90;;;;;;5151606;27;20903;-67
2023/04/14 01:19:58;;;;;;;10.40;10.00;;;3.00;99.90;;;;;;5138473;27;20723;-67
2023/04/14 01:22:29;;;;;;;9.70;9.40;;;3.00;99.90;;;;;;5147572;27;20488;-68
2023/04/14 01:25:16;;;;;;;9.27;8.97;;;2.90;99.90;;;;;;5150545;27;20467;-67
2023/04/14 01:27:54;;;;;;;9.67;9.37;;;2.90;99.90;;;;;;5135762;27;20461;-68
2023/04/14 01:30:54;;;;;;;9.63;9.33;;;2.80;99.90;;;;;;5149377;27;20462;-68
2023/04/14 01:33:26;;;;;;;10.30;9.90;;;2.80;99.90;;;;;;5151291;27;20475;-67
2023/04/14 01:35:55;;;;;;;9.70;9.40;;;2.80;99.90;;;;;;5138007;27;20462;-68
2023/04/14 01:38:27;;;;;;;9.80;9.50;;;2.70;99.90;;;;;;5151394;27;20463;-68
2023/04/14 01:40:57;;;;;;;9.83;9.53;;;2.70;99.90;;;;;;5151215;27;20467;-67
2023/04/14 01:43:27;;;;;;;9.50;9.20;;;2.60;99.90;;;;;;5151051;27;20950;-68
2023/04/14 01:45:58;;;;;;;9.83;9.53;;;2.60;99.90;;;;;;5150982;27;20631;-68
2023/04/14 01:48:30;;;;;;;9.67;9.37;;;2.60;99.90;;;;;;5150923;27;20492;-68
2023/04/14 01:50:59;;;;;;;9.03;8.73;;;2.60;99.90;;;;;;5150911;27;20455;-68
2023/04/14 01:53:28;;;;;;;9.70;9.40;;;2.60;99.90;;;;;;5150997;27;21123;-67
2023/04/14 01:55:57;;;;;;;9.47;9.17;;;2.70;99.90;;;;;;5150715;27;20508;-68
2023/04/14 01:58:25;;;;;;;9.60;9.30;;;2.80;99.90;;;;;;5150650;27;20492;-67
2023/04/14 02:00:52;;;;;;;9.47;9.17;;;2.90;99.90;;;;;;5148753;27;20463;-68
2023/04/14 02:03:22;;;;;;;8.87;8.57;;;3.10;99.90;;;;;;5149984;27;20451;-67
2023/04/14 02:05:54;;;;;;;8.50;8.20;;;3.10;99.90;;;;;;5150491;27;20451;-67
2023/04/14 02:08:23;;;;;;;9.20;8.90;;;3.10;99.90;;;;;;5150677;27;20748;-67
2023/04/14 02:10:53;;;;;;;9.37;9.07;;;3.10;99.90;;;;;;5140098;27;20463;-67
2023/04/14 02:13:22;;;;;;;8.90;8.60;;;3.10;99.90;;;;;;5149814;27;20475;-67
2023/04/14 02:15:51;;;;;;;9.10;8.80;;;3.20;99.90;;;;;;5150580;27;20479;-67
2023/04/14 02:18:19;;;;;;;8.80;8.50;;;3.20;99.90;;;;;;5150512;27;20960;-67
2023/04/14 02:20:48;;;;;;;9.50;9.20;;;3.20;99.90;;;;;;5150183;27;20792;-68
2023/04/14 02:23:16;;;;;;;9.20;8.90;;;3.20;99.90;;;;;;5150658;27;20475;-67
2023/04/14 02:25:53;;;;;;;9.30;9.00;;;3.10;99.90;;;;;;5138473;27;20938;-68
2023/04/14 02:28:23;;;;;;;8.90;8.60;;;3.10;99.90;;;;;;5148846;27;20802;-67
2023/04/14 02:30:54;;;;;;;8.63;8.33;;;2.90;99.90;;;;;;5150257;27;20824;-68
2023/04/14 02:33:27;;;;;;;9.30;9.00;;;2.70;99.90;;;;;;5143699;27;20860;-67
2023/04/14 02:36:01;;;;;;;9.90;9.60;;;2.50;99.90;;;;;;5140587;27;20555;-67
2023/04/14 02:38:37;;;;;;;9.13;8.83;;;2.40;99.90;;;;;;5149943;27;20455;-67
2023/04/14 02:41:08;;;;;;;9.70;9.40;;;2.50;99.90;;;;;;5150165;27;20463;-67
2023/04/14 02:43:43;;;;;;;9.70;9.40;;;2.40;99.90;;;;;;5149796;27;20471;-68
2023/04/14 02:46:14;;;;;;;9.23;8.93;;;2.30;99.90;;;;;;5149808;27;20504;-67
2023/04/14 02:48:42;;;;;;;9.90;9.60;;;2.30;99.90;;;;;;5149643;27;20507;-68
2023/04/14 02:51:11;;;;;;;9.80;9.50;;;2.30;99.90;;;;;;5150147;27;20498;-68
2023/04/14 02:53:40;;;;;;;9.90;9.60;;;2.30;99.90;;;;;;5149587;27;21057;-68
2023/04/14 02:56:08;;;;;;;9.37;9.07;;;2.30;99.90;;;;;;5149917;27;20459;-68
2023/04/14 02:58:35;;;;;;;9.07;8.77;;;2.30;99.90;;;;;;5146674;27;20496;-68
2023/04/14 03:01:02;;;;;;;9.70;9.40;;;2.40;99.90;;;;;;5148545;27;20459;-67
2023/04/14 03:03:30;;;;;;;9.30;9.00;;;2.50;99.90;;;;;;5143737;27;20867;-68
2023/04/14 03:05:58;;;;;;;9.30;9.00;;;2.60;99.90;;;;;;5149437;27;20567;-68
2023/04/14 03:08:27;;;;;;;9.47;9.17;;;2.70;99.90;;;;;;5149516;27;20462;-68
2023/04/14 03:10:57;;;;;;;9.33;9.03;;;2.90;99.90;;;;;;5143544;27;20452;-68
2023/04/14 03:13:28;;;;;;;9.23;8.93;;;2.90;99.90;;;;;;5149474;27;20484;-67
2023/04/14 03:15:56;;;;;;;9.37;9.07;;;3.00;99.90;;;;;;5149396;27;20538;-67
2023/04/14 03:18:24;;;;;;;10.10;9.80;;;2.90;99.90;;;;;;5150192;27;20456;-68
2023/04/14 03:20:54;;;;;;;9.80;9.50;;;2.80;99.90;;;;;;5142843;27;20475;-67
2023/04/14 03:23:23;;;;;;;10.03;9.73;;;2.80;99.90;;;;;;5145047;27;20487;-67
2023/04/14 03:25:51;;;;;;;9.97;9.67;;;2.80;99.90;;;;;;5142568;27;20459;-68
2023/04/14 03:28:23;;;;;;;10.33;9.93;;;2.80;99.90;;;;;;5149842;27;20595;-67
2023/04/14 03:30:52;;;;;;;10.70;10.30;;;2.70;99.90;;;;;;5144121;27;20547;-68
2023/04/14 03:33:24;;;;;;;11.17;10.77;;;2.60;99.90;;;;;;5150117;27;20548;-68
2023/04/14 03:35:53;;;;;;;10.13;9.77;;;2.60;99.90;;;;;;5135920;27;20455;-68
2023/04/14 03:38:22;;;;;;;10.53;10.13;;;2.70;99.90;;;;;;5149809;27;20508;-67
2023/04/14 03:40:50;;;;;;;10.80;10.40;;;2.60;99.90;;;;;;5149369;27;20456;-67
2023/04/14 03:43:21;;;;;;;10.60;10.20;;;2.60;99.90;;;;;;5149404;27;20532;-68
2023/04/14 03:45:50;;;;;;;11.50;11.10;;;2.60;99.90;;;;;;5152416;27;20876;-67
2023/04/14 03:48:20;;;;;;;10.67;10.27;;;2.70;99.90;;;;;;5153241;27;20482;-68
2023/04/14 03:50:50;;;;;;;10.67;10.27;;;2.80;99.90;;;;;;5153408;27;20451;-68
2023/04/14 03:53:19;;;;;;;10.90;10.50;;;2.70;99.90;;;;;;5153190;27;20521;-67
2023/04/14 03:55:47;;;;;;;11.00;10.60;;;2.60;99.90;;;;;;5152915;27;20487;-68
2023/04/14 03:58:16;;;;;;;11.00;10.60;;;2.50;99.90;;;;;;5143243;27;20503;-68
2023/04/14 04:00:46;;;;;;;11.80;11.40;;;2.50;99.90;;;;;;5152304;27;20474;-68
2023/04/14 04:03:15;;;;;;;11.60;11.20;;;2.40;99.90;;;;;;5152776;27;20454;-68
2023/04/14 04:05:42;;;;;;;11.37;10.97;;;2.40;99.90;;;;;;5152944;27;20823;-67
2023/04/14 04:08:10;;;;;;;11.83;11.43;;;2.20;99.90;;;;;;5148940;27;20508;-68
2023/04/14 04:10:38;;;;;;;11.77;11.37;;;2.10;99.90;;;;;;5150454;27;20523;-68
2023/04/14 04:13:10;;;;;;;12.60;12.10;;;1.90;99.90;;;;;;5151368;27;21001;-67
2023/04/14 04:15:38;;;;;;;12.40;11.90;;;1.90;99.90;;;;;;5149203;27;20483;-68
2023/04/14 04:18:08;;;;;;;12.40;11.90;;;1.90;99.90;;;;;;5152504;27;20467;-68
2023/04/14 04:20:37;;;;;;;12.20;11.70;;;1.80;99.90;;;;;;5151048;27;20447;-68
2023/04/14 04:23:05;;;;;;;12.37;11.87;;;1.70;99.90;;;;;;5146478;27;20491;-67
2023/04/14 04:25:33;;;;;;;12.20;11.70;;;1.60;99.90;;;;;;5149332;27;20520;-67
2023/04/14 04:28:01;;;;;;;12.93;12.43;;;1.60;99.90;;;;;;5152685;27;20567;-68
2023/04/14 04:30:29;;;;;;;12.70;12.20;;;1.60;99.90;;;;;;5150223;27;20462;-68
2023/04/14 04:32:56;;;;;;;12.70;12.20;;;1.60;99.90;;;;;;5151786;27;20542;-68
2023/04/14 04:35:26;;;;;;;12.70;12.20;;;1.60;99.90;;;;;;5151995;27;20458;-67
2023/04/14 04:37:55;;;;;;;12.67;12.17;;;1.70;99.90;;;;;;5147226;27;20482;-67
2023/04/14 04:40:22;;;;;;;14.33;13.73;;;1.70;99.90;;;;;;5147098;27;20555;-67
2023/04/14 04:42:48;;;;;;;12.97;12.47;;;1.60;99.90;;;;;;5149606;27;20475;-68
2023/04/14 04:45:30;;;;;;;13.20;12.70;;;1.50;99.90;;;;;;5152322;27;20512;-67
2023/04/14 04:47:56;;;;;;;12.63;12.13;;;1.50;99.90;;;;;;5152437;27;20792;-67
2023/04/14 04:50:24;;;;;;;12.63;12.13;;;1.40;99.90;;;;;;5152275;27;20468;-67
2023/04/14 04:52:51;;;;;;;12.73;12.23;;;1.30;99.90;;;;;;5150379;27;20459;-68
2023/04/14 04:55:18;;;;;;;12.80;12.30;;;1.30;99.90;;;;;;5150003;27;20499;-67
2023/04/14 04:57:46;;;;;;;12.47;11.97;;;1.40;99.90;;;;;;5150236;27;20949;-68
2023/04/14 05:00:13;;;;;;;12.30;11.80;;;1.40;99.90;;;;;;5151621;27;20466;-68
2023/04/14 05:02:40;;;;;;;11.83;11.43;;;1.50;99.90;;;;;;5151123;27;20451;-67
2023/04/14 05:05:08;;;;;;;11.03;10.63;;;1.90;99.90;;;;;;5151051;27;20467;-68
2023/04/14 05:07:37;;;;;;;10.60;10.20;;;2.20;99.90;;;;;;5151061;27;21218;-68
2023/04/14 05:10:04;;;;;;;10.30;9.90;;;2.30;99.90;;;;;;5151961;27;20478;-68
2023/04/14 05:12:32;;;;;;;10.13;9.83;;;2.50;99.90;;;;;;5152664;27;20460;-68
2023/04/14 05:14:58;;;;;;;9.70;9.40;;;2.40;99.90;;;;;;5151095;27;20491;-68
2023/04/14 05:17:26;;;;;;;10.50;10.10;;;2.40;99.90;;;;;;5146809;27;20447;-67
2023/04/14 05:19:53;;;;;;;9.80;9.50;;;2.50;99.90;;;;;;5152478;27;20899;-68
2023/04/14 05:22:21;;;;;;;10.50;10.10;;;2.50;99.90;;;;;;5152123;27;20486;-68
2023/04/14 05:24:50;;;;;;;9.90;9.60;;;2.60;99.90;;;;;;5152222;27;20544;-67
2023/04/14 05:27:17;;;;;;;10.03;9.73;;;2.60;99.90;;;;;;5149103;27;20464;-68
2023/04/14 05:29:43;;;;;;;10.10;9.80;;;2.60;99.90;;;;;;5142784;27;20871;-67
2023/04/14 05:32:11;;;;;;;10.53;10.13;;;2.60;99.90;;;;;;5140344;27;20474;-68
2023/04/14 05:34:38;;;;;;;10.90;10.50;;;2.90;99.90;;;;;;5145852;27;20506;-68
2023/04/14 05:37:05;;;;;;;11.10;10.70;;;3.10;99.90;;;;;;5144070;27;20463;-68
2023/04/14 05:39:32;;;;;;;10.50;10.10;;;3.10;99.90;;;;;;5140693;27;20882;-68
2023/04/14 05:42:00;;;;;;;11.20;10.80;;;3.10;99.90;;;;;;5144697;27;20479;-68
2023/04/14 05:44:27;;;;;;;11.20;10.80;;;3.20;99.90;;;;;;5145647;27;20460;-68
2023/04/14 05:46:54;;;;;;;10.60;10.20;;;3.30;99.90;;;;;;5144872;27;20454;-67
2023/04/14 05:49:21;;;;;;;10.47;10.07;;;3.50;99.90;;;;;;5132153;27;20513;-68
2023/04/14 05:51:48;;;;;;;10.67;10.27;;;3.60;99.90;;;;;;5143535;27;20567;-68
2023/04/14 05:54:15;;;;;;;10.33;9.93;;;3.60;99.90;;;;;;5149586;27;20491;-68
2023/04/14 05:56:42;;;;;;;11.33;10.93;;;3.60;99.90;;;;;;5143604;27;20753;-68
2023/04/14 05:59:10;;;;;;;10.63;10.23;;;3.60;99.90;;;;;;5149239;27;20595;-68
2023/04/14 06:01:37;;;;;;;10.40;10.00;;;3.60;99.90;;;;;;5150020;27;20743;-68
2023/04/14 06:04:04;;;;;;;10.77;10.37;;;3.70;99.90;;;;;;5148644;27;20482;-68
2023/04/14 06:06:32;;;;;;;10.17;9.77;;;3.90;99.90;;;;;;5145329;27;20448;-68
2023/04/14 06:09:00;;;;;;;9.80;9.50;;;4.10;99.90;;;;;;5151270;27;20542;-68
2023/04/14 06:11:26;;;;;;;9.70;9.40;;;4.30;99.90;;;;;;5151258;27;20454;-68
2023/04/14 06:13:53;;;;;;;10.40;10.00;;;4.40;99.90;;;;;;5150758;27;20976;-68
2023/04/14 06:17:00;;;;;;;10.63;10.23;;;4.50;99.90;;;;;;5143953;27;20481;-68
2023/04/14 06:19:57;;;;;;;10.90;10.50;;;4.60;99.90;;;;;;5064961;28;20534;-68
2023/04/14 06:22:53;;;;;;;10.90;10.50;;;4.80;99.90;;;;;;4921010;29;20604;-68
2023/04/14 06:25:51;;;;;;;30.30;27.30;;;4.90;99.90;;;;;;4887140;29;20487;-68
2023/04/14 06:28:47;;;;;;;10.90;10.50;;;5.00;99.90;;;;;;4942113;28;20871;-68
2023/04/14 06:31:44;;;;;;;11.97;11.50;;;5.10;99.90;;;;;;4963272;28;20476;-68
2023/04/14 06:34:41;;;;;;;11.23;10.83;;;5.20;99.90;;;;;;4994603;28;20496;-68
2023/04/14 06:37:37;;;;;;;13.27;12.57;;;5.30;99.90;;;;;;4972483;28;20485;-68
2023/04/14 06:44:05;;;;;;;11.20;10.80;;;5.50;99.90;;;;;;4909609;29;20524;-70
2023/04/14 06:47:13;;;;;;;10.63;10.23;;;5.60;99.90;;;;;;4980979;28;20470;-67
2023/04/14 06:56:43;;;;;;;10.73;10.33;;;6.00;99.90;;;;;;4939921;28;20592;-70
2023/04/14 06:59:39;;;;;;;11.20;10.80;;;6.10;99.90;;;;;;5106268;27;20451;-69
2023/04/14 07:02:36;;;;;;;12.10;11.60;;;6.20;99.90;;;;;;5025400;28;20455;-70
2023/04/14 07:08:47;;;;;;;11.37;10.97;;;6.60;99.90;;;;;;4906846;28;20459;-72
2023/04/14 07:11:45;;;;;;;11.20;10.80;;;6.70;99.90;;;;;;5025643;27;20487;-71
2023/04/14 07:14:49;;;;;;;11.70;11.27;;;6.80;99.90;;;;;;5032840;28;20483;-70
2023/04/14 07:17:47;;;;;;;13.27;12.70;;;6.90;99.90;;;;;;4923461;29;20469;-70
2023/04/14 07:24:14;;;;;;;12.40;11.90;;;7.30;99.90;;;;;;4848971;29;20474;-71
2023/04/14 07:27:13;;;;;;;11.93;11.43;;;7.50;99.90;;;;;;4887448;29;20461;-71
2023/04/14 07:35:00;;;;;;;12.10;11.60;;;7.90;99.90;;;;;;4898262;28;21024;-71
2023/04/14 07:37:27;;;;;;;11.83;11.33;;;8.10;99.90;;;;;;5144639;27;20210;-69
2023/04/14 07:39:54;;;;;;;11.90;11.43;;;8.20;99.90;;;;;;5151780;27;20957;-69
2023/04/14 07:42:20;;;;;;;13.43;12.83;;;8.40;99.90;;;;;;5142624;27;20554;-70
2023/04/14 07:44:47;;;;;;;11.67;11.27;;;8.40;99.90;;;;;;5147595;27;20482;-69
2023/04/14 07:47:15;;;;;;;12.30;11.80;;;8.70;99.90;;;;;;5147070;27;20543;-72
2023/04/14 07:49:42;;;;;;;12.40;11.90;;;8.80;99.90;;;;;;5147936;27;20462;-69
2023/04/14 07:52:11;;;;;;;12.73;12.23;;;9.10;99.90;;;;;;5147619;27;20451;-70
2023/04/14 07:54:38;;;;;;;12.93;12.43;;;9.20;99.90;;;;;;5143144;27;20544;-69
2023/04/14 07:57:07;;;;;;;12.43;11.93;;;9.20;99.90;;;;;;5145127;27;20462;-69
2023/04/14 07:59:34;;;;;;;13.53;12.93;;;9.20;99.90;;;;;;5147494;27;20451;-69
2023/04/14 08:02:00;;;;;;;13.87;13.27;;;9.40;99.90;;;;;;5145322;27;20466;-69
2023/04/14 08:04:27;;;;;;;13.80;13.20;;;9.50;99.90;;;;;;5145701;27;20992;-69
2023/04/14 08:06:55;;;;;;;14.40;13.80;;;9.60;99.90;;;;;;5148474;27;20508;-70
2023/04/14 08:09:23;;;;;;;13.37;12.87;;;9.70;99.90;;;;;;5142519;27;21148;-72
2023/04/14 08:11:50;;;;;;;13.80;13.20;;;9.80;99.90;;;;;;5146541;27;20474;-69
2023/04/14 08:14:17;;;;;;;13.67;13.07;;;10.10;99.90;;;;;;5147989;27;20521;-70
2023/04/14 08:16:43;;;;;;;14.53;13.93;;;10.20;99.90;;;;;;5144740;27;20925;-70
2023/04/14 08:19:11;;;;;;;13.83;13.23;;;10.40;99.90;;;;;;5140504;27;20453;-69
2023/04/14 08:21:37;;;;;;;14.00;13.40;;;10.60;99.90;;;;;;5143901;27;20527;-69
2023/04/14 08:24:05;;;;;;;14.50;13.90;;;10.80;99.90;;;;;;5158759;27;20940;-69
2023/04/14 08:26:33;;;;;;;14.83;14.20;;;11.00;99.90;;;;;;5148186;27;20594;-68
2023/04/14 08:29:00;;;;;;;14.07;13.47;;;11.30;99.90;;;;;;5147952;27;20467;-71
2023/04/14 08:31:27;;;;;;;14.30;13.70;;;11.30;99.90;;;;;;5150293;27;20463;-68
2023/04/14 08:33:54;;;;;;;14.23;13.63;;;11.30;99.90;;;;;;5148510;27;20531;-68
2023/04/14 08:36:20;;;;;;;15.40;14.70;;;11.50;99.90;;;;;;5151386;27;20486;-69
2023/04/14 08:38:47;;;;;;;14.57;13.97;;;11.30;99.90;;;;;;5146443;27;20527;-69
2023/04/14 08:41:17;;;;;;;15.23;14.57;;;11.30;99.90;;;;;;5150292;27;20462;-68
2023/04/14 08:43:45;;;;;;;15.67;14.97;;;11.40;99.90;;;;;;5143329;27;21013;-69
2023/04/14 08:46:14;;;;;;;14.87;14.27;;;11.50;99.90;;;;;;5153009;27;20459;-69
2023/04/14 08:48:45;;;;;;;15.20;14.50;;;11.50;99.90;;;;;;5141162;27;20460;-69
2023/04/14 08:51:18;;;;;;;15.60;14.90;;;11.70;99.90;;;;;;5144926;27;20539;-69
2023/04/14 08:53:48;;;;;;;15.03;14.43;;;11.70;99.90;;;;;;5151220;27;20546;-70
2023/04/14 08:56:16;;;;;;;15.63;14.93;;;12.00;99.90;;;;;;5137510;27;20483;-69
2023/04/14 08:58:46;;;;;;;15.13;14.53;;;11.90;99.90;;;;;;5142452;27;20489;-69
2023/04/14 09:01:13;;;;;;;15.83;15.13;;;12.00;99.90;;;;;;5151259;27;20451;-69
2023/04/14 09:03:41;;;;;;;15.20;14.60;;;12.40;99.90;;;;;;5150998;27;20459;-70
2023/04/14 09:06:08;;;;;;;15.40;14.70;;;12.90;99.90;;;;;;5152647;27;20899;-68
2023/04/14 09:08:36;;;;;;;15.60;14.90;;;13.60;99.90;;;;;;5152593;27;20561;-70
2023/04/14 09:11:04;;;;;;;15.70;15.00;;;14.60;99.90;;;;;;5152689;27;20925;-69
2023/04/14 09:13:31;;;;;;;15.80;15.10;;;14.80;99.90;;;;;;5138245;27;20463;-69
2023/04/14 09:16:00;;;;;;;16.50;15.80;;;15.40;99.90;;;;;;5151723;27;20894;-69
2023/04/14 09:18:30;;;;;;;15.87;15.17;;;16.00;99.90;;;;;;5150648;27;20455;-68
2023/04/14 09:20:57;;;;;;;15.83;15.13;;;16.60;99.90;;;;;;5143965;27;20486;-69
2023/04/14 09:23:25;;;;;;;15.90;15.20;;;16.60;99.90;;;;;;5149022;27;20519;-69
2023/04/14 09:25:52;;;;;;;16.00;15.30;;;16.70;99.90;;;;;;5140884;27;20900;-69
2023/04/14 09:28:19;;;;;;;16.30;15.60;;;17.50;99.90;;;;;;5144451;27;20464;-69
2023/04/14 09:30:46;;;;;;;16.50;15.80;;;18.00;99.70;;;;;;5147625;27;20451;-68
2023/04/14 09:33:22;;;;;;;15.40;14.80;;;18.40;96.50;;;;;;5149152;27;20452;-70
2023/04/14 09:35:50;;;;;;;17.03;15.50;;;18.20;92.90;;;;;;5140712;27;21022;-68
2023/04/14 09:38:33;;;;;;;16.40;15.70;;;18.30;91.20;;;;;;5142153;27;21001;-68
2023/04/14 09:41:00;;;;;;;15.60;14.90;;;17.70;90.60;;;;;;5146088;27;20464;-68
2023/04/14 09:43:29;;;;;;;17.73;15.90;;;17.50;92.40;;;;;;5142290;27;20487;-68
2023/04/14 09:45:57;;;;;;;15.60;14.90;;;17.60;92.80;;;;;;5142226;27;20916;-69
2023/04/14 09:48:25;;;;;;;17.23;16.07;;;18.30;95.00;;;;;;5143462;27;20941;-68
2023/04/14 09:51:05;;;;;;;16.17;15.47;;;18.10;92.10;;;;;;5142395;27;20492;-70
2023/04/14 09:53:33;;;;;;;16.07;15.37;;;18.50;93.40;;;;;;5140681;27;20463;-69
2023/04/14 09:56:01;;;;;;;18.57;16.10;;;18.70;90.90;;;;;;5138485;27;20483;-68
2023/04/14 09:58:31;;;;;;;15.70;15.00;;;19.50;90.60;;;;;;5136589;27;20935;-70
2023/04/14 10:00:59;;;;;;;15.50;14.80;;;19.30;88.00;;;;;;5136474;27;20465;-68
2023/04/14 10:03:36;;;;;;;15.80;14.80;;;19.20;91.40;;;;;;5147545;27;20478;-69
2023/04/14 10:06:04;;;;;;;15.10;14.50;;;19.50;90.30;;;;;;5138867;27;20455;-68
2023/04/14 10:08:36;;;;;;;15.73;15.03;;;19.30;91.10;;;;;;5139264;27;20859;-70
2023/04/14 10:11:17;;;;;;;15.20;14.60;;;18.80;87.20;;;;;;5140210;27;20538;-70
2023/04/14 10:13:45;;;;;;;15.57;14.90;;;19.40;84.80;;;;;;5137789;27;20909;-70
2023/04/14 10:16:12;;;;;;;16.00;15.30;;;19.70;82.40;;;;;;5138891;27;20539;-68
2023/04/14 10:18:40;;;;;;;15.00;14.40;;;19.50;84.30;;;;;;5136719;27;20455;-70
2023/04/14 10:21:08;;;;;;;15.50;14.90;;;20.50;82.60;;;;;;5150886;27;20776;-68
2023/04/14 10:23:37;;;;;;;15.17;14.57;;;20.70;78.00;;;;;;5151165;27;20463;-69
2023/04/14 10:26:06;;;;;;;15.47;14.87;;;20.60;77.00;;;;;;5151309;27;20900;-68
2023/04/14 10:28:34;;;;;;;15.20;14.60;;;20.70;78.00;;;;;;5151489;27;20487;-69
2023/04/14 10:31:02;;;;;;;15.53;14.93;;;20.90;77.00;;;;;;5150742;27;20538;-70
2023/04/14 10:33:29;;;;;;;15.50;14.90;;;21.30;72.00;;;;;;5149226;27;20952;-68
2023/04/14 10:36:00;;;;;;;15.70;15.10;;;20.40;67.50;;;;;;5149288;27;20491;-68
2023/04/14 10:38:38;;;;;;;15.20;14.60;;;20.30;72.50;;;;;;5149296;27;20459;-69
2023/04/14 10:41:06;;;;;;;15.97;14.97;;;20.90;71.90;;;;;;5145548;27;20459;-68
2023/04/14 10:43:35;;;;;;;15.20;14.60;;;22.20;71.50;;;;;;5149241;27;20804;-69
2023/04/14 10:46:02;;;;;;;15.43;14.83;;;21.80;64.10;;;;;;5149333;27;20455;-69
2023/04/14 10:48:33;;;;;;;16.00;15.30;;;20.60;65.00;;;;;;5150793;27;20456;-69
2023/04/14 10:51:02;;;;;;;14.90;14.30;;;21.10;67.40;;;;;;5149563;27;20455;-69
2023/04/14 10:53:35;;;;;;;15.17;14.57;;;21.40;64.20;;;;;;5148469;27;20455;-69
2023/04/14 10:56:04;;;;;;;15.73;15.03;;;21.10;66.90;;;;;;5148583;27;20533;-68
2023/04/14 10:58:31;;;;;;;15.20;14.60;;;21.20;66.80;;;;;;5148869;27;21247;-69
2023/04/14 11:00:58;;;;;;;15.60;15.00;;;21.30;64.90;;;;;;5148659;27;20475;-69
2023/04/14 11:03:31;;;;;;;15.10;14.50;;;21.90;63.00;;;;;;5148638;27;20542;-69
2023/04/14 11:05:58;;;;;;;16.00;15.30;;;22.30;61.30;;;;;;5148722;27;20558;-69
2023/04/14 11:08:27;;;;;;;15.10;14.50;;;21.60;58.60;;;;;;5147136;27;20455;-69
2023/04/14 11:11:01;;;;;;;15.10;14.50;;;21.00;61.80;;;;;;5138302;27;20496;-68
2023/04/14 11:13:29;;;;;;;15.57;14.87;;;21.40;60.00;;;;;;5148172;27;20459;-68
2023/04/14 11:15:58;;;;;;;15.53;14.83;;;21.40;57.20;;;;;;5147906;27;20487;-69
2023/04/14 11:18:33;;;;;;;14.90;14.30;;;21.50;54.60;;;;;;5148410;27;20516;-68
2023/04/14 11:21:05;;;;;;;15.37;14.67;;;22.10;55.40;;;;;;5148028;27;20451;-69
2023/04/14 11:23:33;;;;;;;16.70;15.17;;;22.30;54.40;;;;;;5149008;27;20455;-68
2023/04/14 11:26:01;;;;;;;15.10;14.50;;;22.70;51.00;;;;;;5148786;27;20863;-68
2023/04/14 11:28:30;;;;;;;14.70;14.10;;;23.00;50.50;;;;;;5148572;27;20546;-69
2023/04/14 11:30:59;;;;;;;14.80;14.20;;;22.70;49.10;;;;;;5144067;27;20877;-69
2023/04/14 11:33:30;;;;;;;14.60;14.00;;;23.00;48.70;;;;;;5148438;27;20859;-69
2023/04/14 11:35:57;;;;;;;14.10;13.50;;;22.50;47.50;;;;;;5148147;27;20497;-69
2023/04/14 11:38:25;;;;;;;14.23;13.63;;;22.80;48.10;;;;;;5134967;27;20455;-69
2023/04/14 11:40:55;;;;;;;14.50;13.90;;;23.30;49.20;;;;;;5148421;27;20487;-69
2023/04/14 11:43:22;;;;;;;14.30;13.70;;;23.20;49.20;;;;;;5148374;27;20478;-69
2023/04/14 11:45:49;;;;;;;14.90;14.30;;;23.40;43.80;;;;;;5149190;27;20455;-68
2023/04/14 11:48:18;;;;;;;14.10;13.50;;;24.00;44.40;;;;;;5149894;27;20466;-69
2023/04/14 11:50:45;;;;;;;14.20;13.60;;;24.00;41.50;;;;;;5136195;27;20940;-68
2023/04/14 11:53:13;;;;;;;14.23;13.63;;;24.70;42.90;;;;;;5150175;27;20452;-69
2023/04/14 11:55:43;;;;;;;14.10;13.50;;;25.10;43.30;;;;;;5150011;27;20985;-69
2023/04/14 11:58:12;;;;;;;14.47;13.87;;;25.30;41.00;;;;;;5149654;27;20448;-70
2023/04/14 12:00:41;;;;;;;14.73;13.87;;;25.50;42.60;;;;;;5150016;27;20873;-69
2023/04/14 12:03:08;;;;;;;14.23;13.63;;;25.20;42.30;;;;;;5150092;27;20459;-70
2023/04/14 12:05:35;;;;;;;14.30;13.70;;;25.40;43.30;;;;;;5151005;27;20563;-68
2023/04/14 12:08:06;;;;;;;14.27;13.67;;;25.40;40.40;;;;;;5154067;27;20466;-69
2023/04/14 12:10:33;;;;;;;14.50;13.90;;;24.90;39.80;;;;;;5148973;27;20455;-69
2023/04/14 12:13:01;;;;;;;14.50;13.90;;;23.60;40.10;;;;;;5153700;27;20486;-69
2023/04/14 12:15:31;;;;;;;14.53;13.93;;;23.90;40.70;;;;;;5153320;27;20462;-68
2023/04/14 12:17:58;;;;;;;15.30;14.70;;;24.00;40.50;;;;;;5153947;27;20463;-68
2023/04/14 12:20:26;;;;;;;14.50;13.90;;;24.30;40.50;;;;;;5153961;27;20462;-69
2023/04/14 12:23:00;;;;;;;14.90;14.30;;;24.70;39.30;;;;;;5153524;27;20458;-69
2023/04/14 12:25:32;;;;;;;15.80;15.10;;;25.20;38.00;;;;;;5153503;27;20933;-69
2023/04/14 12:28:01;;;;;;;15.13;14.53;;;25.70;40.20;;;;;;5140610;27;20833;-69
2023/04/14 12:30:29;;;;;;;14.93;14.33;;;26.10;41.20;;;;;;5153317;27;20463;-70
2023/04/14 12:32:56;;;;;;;15.07;14.47;;;26.30;39.70;;;;;;5153327;27;20490;-68
2023/04/14 12:35:24;;;;;;;14.00;13.50;;;27.40;35.50;;;;;;5153480;27;20474;-69
2023/04/14 12:37:52;;;;;;;14.80;14.20;;;27.40;34.80;;;;;;5153786;27;20494;-69
2023/04/14 12:40:36;;;;;;;14.53;13.93;;;26.90;35.10;;;;;;5153298;27;21032;-70
2023/04/14 12:43:03;;;;;;;14.50;13.90;;;26.20;36.90;;;;;;5153017;27;20471;-69
2023/04/14 12:45:41;;;;;;;14.87;14.27;;;26.40;36.30;;;;;;5153118;27;20841;-69
2023/04/14 12:48:08;;;;;;;14.80;14.20;;;27.40;34.60;;;;;;5152934;27;20463;-69
2023/04/14 12:50:34;;;;;;;15.60;14.90;;;26.30;32.40;;;;;;5153531;27;20546;-69
2023/04/14 12:53:02;;;;;;;14.87;14.27;;;24.40;35.70;;;;;;5152872;27;20567;-70
2023/04/14 12:55:30;;;;;;;15.27;14.57;;;23.30;37.30;;;;;;5153131;27;20490;-69
2023/04/14 12:57:58;;;;;;;17.47;16.13;;;23.20;38.00;;;;;;5152924;27;20495;-69
2023/04/14 13:00:26;;;;;;;15.33;14.63;;;23.40;39.40;;;;;;5152936;27;20451;-70
2023/04/14 13:02:56;;;;;;;15.20;14.60;;;22.50;38.40;;;;;;5152774;27;20916;-69
2023/04/14 13:05:23;;;;;;;15.07;14.47;;;22.10;38.40;;;;;;5152605;27;20946;-69
2023/04/14 13:07:50;;;;;;;14.60;14.00;;;22.50;37.50;;;;;;5152631;27;20455;-70
2023/04/14 13:10:18;;;;;;;14.60;14.00;;;22.70;40.10;;;;;;5152560;27;20447;-71
2023/04/14 13:12:45;;;;;;;14.23;13.63;;;23.40;38.70;;;;;;5152767;27;20512;-70
2023/04/14 13:15:12;;;;;;;14.10;13.50;;;23.70;37.30;;;;;;5152420;27;20455;-70